Time;durP1;ratioP1;P1;durP2;ratioP2;P2;SDS_P1;SDS_P2;PMS_P1;PMS_P2;Temp;Humidity;BMP_temperature;BMP_pressure;BME280_temperature;BME280_humidity;BME280_pressure;Samples;Min_cycle;Max_cycle;Signal;HPM_P1;HPM_P2
2022/10/18 00:02:15;;;;;;;1.85;0.50;;;;;;;;;;6250183;22;20023;-43
2022/10/18 00:04:41;;;;;;;1.52;0.35;;;;;;;;;;6255810;22;20015;-43
2022/10/18 00:07:08;;;;;;;1.88;0.68;;;;;;;;;;6248892;22;20446;-46
2022/10/18 00:09:34;;;;;;;3.33;0.93;;;;;;;;;;6252795;22;20024;-43
2022/10/18 00:12:01;;;;;;;2.58;0.80;;;;;;;;;;6246679;22;20086;-44
2022/10/18 00:14:29;;;;;;;2.47;1.00;;;;;;;;;;6249142;22;20015;-42
2022/10/18 00:16:56;;;;;;;3.33;0.73;;;;;;;;;;6248295;22;20011;-46
2022/10/18 00:19:22;;;;;;;1.83;0.32;;;;;;;;;;6256452;22;20810;-45
2022/10/18 00:21:49;;;;;;;1.93;0.57;;;;;;;;;;6253518;22;20430;-46
2022/10/18 00:24:16;;;;;;;1.90;0.55;;;;;;;;;;6251976;22;20089;-43
2022/10/18 00:26:42;;;;;;;1.75;0.32;;;;;;;;;;6224527;22;20324;-44
2022/10/18 00:29:12;;;;;;;1.58;0.38;;;;;;;;;;6254319;22;20118;-45
2022/10/18 00:31:40;;;;;;;1.50;0.30;;;;;;;;;;6254959;22;20015;-43
2022/10/18 00:34:09;;;;;;;2.80;0.63;;;;;;;;;;6253726;22;20350;-47
2022/10/18 00:36:36;;;;;;;1.23;0.30;;;;;;;;;;6253732;22;20019;-43
2022/10/18 00:39:04;;;;;;;1.55;0.30;;;;;;;;;;6257747;22;20027;-42
2022/10/18 00:41:32;;;;;;;1.83;0.50;;;;;;;;;;6246471;22;20020;-47
2022/10/18 00:44:00;;;;;;;1.67;0.40;;;;;;;;;;6257089;22;20015;-44
2022/10/18 00:46:27;;;;;;;1.73;0.40;;;;;;;;;;6223769;22;20015;-47
2022/10/18 00:48:56;;;;;;;5.57;1.05;;;;;;;;;;6256343;22;20039;-43
2022/10/18 00:51:23;;;;;;;1.70;0.50;;;;;;;;;;6249954;22;20062;-44
2022/10/18 00:53:50;;;;;;;1.92;0.30;;;;;;;;;;6255016;22;20016;-42
2022/10/18 00:56:17;;;;;;;3.78;0.68;;;;;;;;;;6255101;22;20073;-43
2022/10/18 00:58:44;;;;;;;2.07;0.30;;;;;;;;;;6252726;22;20023;-43
2022/10/18 01:01:10;;;;;;;2.95;0.93;;;;;;;;;;6255616;22;20073;-45
2022/10/18 01:03:38;;;;;;;1.10;0.20;;;;;;;;;;6252123;22;20035;-43
2022/10/18 01:06:07;;;;;;;1.52;0.38;;;;;;;;;;6257208;22;20015;-44
2022/10/18 01:08:55;;;;;;;1.48;0.35;;;;;;;;;;6245727;22;20012;-42
2022/10/18 01:11:29;;;;;;;2.97;1.03;;;;;;;;;;6249860;22;20091;-42
2022/10/18 01:14:00;;;;;;;1.65;0.50;;;;;;;;;;6254089;22;20240;-45
2022/10/18 01:16:28;;;;;;;1.42;0.30;;;;;;;;;;6256929;22;20011;-43
2022/10/18 01:18:57;;;;;;;3.15;0.50;;;;;;;;;;6254112;22;20490;-49
2022/10/18 01:21:38;;;;;;;1.30;0.20;;;;;;;;;;6251015;22;20026;-43
2022/10/18 01:24:15;;;;;;;1.77;0.40;;;;;;;;;;6251437;22;20012;-44
2022/10/18 01:26:52;;;;;;;1.20;0.20;;;;;;;;;;6251918;22;20081;-43
2022/10/18 01:29:27;;;;;;;2.22;0.47;;;;;;;;;;6253127;22;20058;-44
2022/10/18 01:31:58;;;;;;;2.28;0.73;;;;;;;;;;6253898;22;20077;-44
2022/10/18 01:34:26;;;;;;;1.55;0.20;;;;;;;;;;6227841;22;20012;-42
2022/10/18 01:36:54;;;;;;;1.60;0.33;;;;;;;;;;6256129;22;20016;-43
2022/10/18 01:39:23;;;;;;;1.20;0.20;;;;;;;;;;6217093;22;20346;-43
2022/10/18 01:41:50;;;;;;;1.60;0.43;;;;;;;;;;6246082;22;20020;-45
2022/10/18 01:44:18;;;;;;;1.25;0.20;;;;;;;;;;6247180;22;20445;-42
2022/10/18 01:46:46;;;;;;;1.70;0.70;;;;;;;;;;6249346;22;20026;-44
2022/10/18 01:49:14;;;;;;;2.07;0.37;;;;;;;;;;6252775;22;20015;-43
2022/10/18 01:51:40;;;;;;;1.83;0.55;;;;;;;;;;6248426;22;20065;-43
2022/10/18 01:54:07;;;;;;;1.75;0.38;;;;;;;;;;6253214;22;20074;-45
2022/10/18 01:56:36;;;;;;;4.35;1.52;;;;;;;;;;6250044;22;20016;-44
2022/10/18 01:59:06;;;;;;;3.17;0.88;;;;;;;;;;6250863;22;20012;-44
2022/10/18 02:01:37;;;;;;;3.87;1.00;;;;;;;;;;6246441;22;20533;-44
2022/10/18 02:04:06;;;;;;;5.57;1.38;;;;;;;;;;6252269;22;20392;-43
2022/10/18 02:06:38;;;;;;;3.25;0.98;;;;;;;;;;6248345;22;20016;-42
2022/10/18 02:09:07;;;;;;;2.47;0.63;;;;;;;;;;6255178;22;20045;-44
2022/10/18 02:11:35;;;;;;;2.28;0.57;;;;;;;;;;6243758;22;20393;-45
2022/10/18 02:14:06;;;;;;;2.43;0.80;;;;;;;;;;6254011;22;20561;-43
2022/10/18 02:16:35;;;;;;;2.00;0.47;;;;;;;;;;6251675;22;20054;-42
2022/10/18 02:19:05;;;;;;;1.42;0.28;;;;;;;;;;6251829;22;20020;-42
2022/10/18 02:21:32;;;;;;;1.95;0.47;;;;;;;;;;6244921;22;20088;-43
2022/10/18 02:24:02;;;;;;;1.80;0.40;;;;;;;;;;6251959;22;20016;-43
2022/10/18 02:26:28;;;;;;;1.27;0.20;;;;;;;;;;6250578;22;20544;-42
2022/10/18 02:28:55;;;;;;;2.25;0.47;;;;;;;;;;6249570;22;20093;-43
2022/10/18 02:31:25;;;;;;;2.22;0.40;;;;;;;;;;6254056;22;20016;-47
2022/10/18 02:33:55;;;;;;;2.00;0.50;;;;;;;;;;6247005;22;20465;-43
2022/10/18 02:36:23;;;;;;;4.97;0.60;;;;;;;;;;6254656;22;20007;-44
2022/10/18 02:38:53;;;;;;;2.60;1.10;;;;;;;;;;6248885;22;20020;-43
2022/10/18 02:41:23;;;;;;;3.83;1.40;;;;;;;;;;6253512;22;20442;-43
2022/10/18 02:43:50;;;;;;;1.65;0.30;;;;;;;;;;6249658;22;20015;-42
2022/10/18 02:46:17;;;;;;;2.25;0.80;;;;;;;;;;6251773;22;20050;-42
2022/10/18 02:48:43;;;;;;;1.80;0.45;;;;;;;;;;6247466;22;20020;-44
2022/10/18 02:51:10;;;;;;;2.03;0.67;;;;;;;;;;6255564;22;20065;-42
2022/10/18 02:53:36;;;;;;;1.58;0.55;;;;;;;;;;6250352;22;20073;-43
2022/10/18 02:56:03;;;;;;;1.27;0.28;;;;;;;;;;6244956;22;20015;-43
2022/10/18 02:58:31;;;;;;;2.17;0.68;;;;;;;;;;6252137;22;20019;-44
2022/10/18 03:00:57;;;;;;;1.92;0.73;;;;;;;;;;6254154;22;20346;-42
2022/10/18 03:03:24;;;;;;;2.40;0.83;;;;;;;;;;6256799;22;20023;-43
2022/10/18 03:05:51;;;;;;;2.25;0.80;;;;;;;;;;6251540;22;20016;-43
2022/10/18 03:08:19;;;;;;;1.88;0.60;;;;;;;;;;6252225;22;20019;-42
2022/10/18 03:10:45;;;;;;;3.00;1.10;;;;;;;;;;6255269;22;20030;-42
2022/10/18 03:13:12;;;;;;;3.20;1.42;;;;;;;;;;6236203;22;20016;-45
2022/10/18 03:15:41;;;;;;;2.33;0.67;;;;;;;;;;6256652;22;20081;-42
2022/10/18 03:18:07;;;;;;;1.85;0.55;;;;;;;;;;6252722;22;20027;-42
2022/10/18 03:20:34;;;;;;;5.68;0.65;;;;;;;;;;6253923;22;20030;-42
2022/10/18 03:23:00;;;;;;;2.60;0.98;;;;;;;;;;6254271;22;20012;-44
2022/10/18 03:25:27;;;;;;;2.85;1.05;;;;;;;;;;6250142;22;20020;-43
2022/10/18 03:27:54;;;;;;;2.67;0.53;;;;;;;;;;6259270;22;20046;-42
2022/10/18 03:30:20;;;;;;;3.92;0.70;;;;;;;;;;6252723;22;20011;-44
2022/10/18 03:32:48;;;;;;;2.55;1.27;;;;;;;;;;6253311;22;20016;-44
2022/10/18 03:35:14;;;;;;;2.20;0.65;;;;;;;;;;6256159;22;20015;-43
2022/10/18 03:37:41;;;;;;;2.35;0.75;;;;;;;;;;6250191;22;20761;-43
2022/10/18 03:40:10;;;;;;;1.50;0.30;;;;;;;;;;6255755;22;20335;-44
2022/10/18 03:42:36;;;;;;;1.98;0.75;;;;;;;;;;6254877;22;20026;-42
2022/10/18 03:45:03;;;;;;;2.72;0.70;;;;;;;;;;6219700;22;20020;-45
2022/10/18 03:47:29;;;;;;;1.73;0.57;;;;;;;;;;6257389;22;20718;-42
2022/10/18 03:49:57;;;;;;;1.42;0.40;;;;;;;;;;6223814;22;20016;-44
2022/10/18 03:52:24;;;;;;;2.50;0.60;;;;;;;;;;6246627;22;20637;-42
2022/10/18 03:54:50;;;;;;;2.08;0.47;;;;;;;;;;6258618;22;20070;-43
2022/10/18 03:57:17;;;;;;;1.52;0.20;;;;;;;;;;6249618;22;20015;-42
2022/10/18 03:59:43;;;;;;;2.20;0.65;;;;;;;;;;6250519;22;20012;-44
2022/10/18 04:02:10;;;;;;;2.38;1.05;;;;;;;;;;6248772;22;20054;-43
2022/10/18 04:04:36;;;;;;;2.90;0.53;;;;;;;;;;6254201;22;20069;-43
2022/10/18 04:07:04;;;;;;;1.27;0.30;;;;;;;;;;6256424;22;20015;-44
2022/10/18 04:09:30;;;;;;;2.17;0.30;;;;;;;;;;6253567;22;20015;-44
2022/10/18 04:11:57;;;;;;;1.60;0.45;;;;;;;;;;6249922;22;20012;-43
2022/10/18 04:14:23;;;;;;;1.88;0.63;;;;;;;;;;6255336;22;20066;-46
2022/10/18 04:16:50;;;;;;;4.93;0.60;;;;;;;;;;6257030;22;20026;-44
2022/10/18 04:19:17;;;;;;;2.40;1.00;;;;;;;;;;6227319;22;20327;-45
2022/10/18 04:21:43;;;;;;;1.05;0.20;;;;;;;;;;6259403;22;20016;-43
2022/10/18 04:24:11;;;;;;;2.47;0.63;;;;;;;;;;6251303;22;20354;-44
2022/10/18 04:26:38;;;;;;;1.88;0.25;;;;;;;;;;6259814;22;20016;-43
2022/10/18 04:29:04;;;;;;;1.77;0.47;;;;;;;;;;6248292;22;20069;-44
2022/10/18 04:31:31;;;;;;;2.60;0.73;;;;;;;;;;6255770;22;20019;-42
2022/10/18 04:33:57;;;;;;;1.40;0.40;;;;;;;;;;6254362;22;20035;-42
2022/10/18 04:36:24;;;;;;;3.67;0.85;;;;;;;;;;6259877;22;20350;-47
2022/10/18 04:38:50;;;;;;;1.73;0.68;;;;;;;;;;6249541;22;20019;-43
2022/10/18 04:41:18;;;;;;;2.77;1.30;;;;;;;;;;6256683;22;20374;-45
2022/10/18 04:43:45;;;;;;;1.83;0.38;;;;;;;;;;6254942;22;20020;-43
2022/10/18 04:46:11;;;;;;;1.67;0.68;;;;;;;;;;6256581;22;20442;-43
2022/10/18 04:48:37;;;;;;;2.38;0.57;;;;;;;;;;6252383;22;20038;-43
2022/10/18 04:51:04;;;;;;;1.88;0.40;;;;;;;;;;6256404;22;20016;-45
2022/10/18 04:53:31;;;;;;;3.20;0.73;;;;;;;;;;6253960;22;20074;-41
2022/10/18 04:55:58;;;;;;;1.40;0.40;;;;;;;;;;6255640;22;20023;-44
2022/10/18 04:58:25;;;;;;;1.58;0.45;;;;;;;;;;6222453;22;20444;-47
2022/10/18 05:00:52;;;;;;;2.15;0.43;;;;;;;;;;6254466;22;20416;-42
2022/10/18 05:03:19;;;;;;;1.73;0.30;;;;;;;;;;6250681;22;20527;-43
2022/10/18 05:05:45;;;;;;;2.10;0.83;;;;;;;;;;6258112;22;20020;-43
2022/10/18 05:08:12;;;;;;;2.47;0.38;;;;;;;;;;6222891;22;20022;-42
2022/10/18 05:10:38;;;;;;;3.35;0.40;;;;;;;;;;6256711;22;20418;-42
2022/10/18 05:13:05;;;;;;;1.35;0.28;;;;;;;;;;6251082;22;20066;-43
2022/10/18 05:15:33;;;;;;;2.17;0.40;;;;;;;;;;6227984;22;20108;-45
2022/10/18 05:18:00;;;;;;;1.43;0.20;;;;;;;;;;6252978;22;20532;-42
2022/10/18 05:20:26;;;;;;;2.17;0.77;;;;;;;;;;6253809;22;20070;-42
2022/10/18 05:22:53;;;;;;;1.55;0.30;;;;;;;;;;6256419;22;20038;-42
2022/10/18 05:25:19;;;;;;;2.08;0.50;;;;;;;;;;6252871;22;20538;-42
2022/10/18 05:27:46;;;;;;;2.03;0.30;;;;;;;;;;6255869;22;20446;-43
2022/10/18 05:30:12;;;;;;;1.67;0.43;;;;;;;;;;6253056;22;20231;-43
2022/10/18 05:32:40;;;;;;;2.17;0.52;;;;;;;;;;6253288;22;20034;-43
2022/10/18 05:35:07;;;;;;;1.75;0.35;;;;;;;;;;6256206;22;20012;-43
2022/10/18 05:37:33;;;;;;;1.92;0.40;;;;;;;;;;6250710;22;20015;-41
2022/10/18 05:40:00;;;;;;;1.85;0.45;;;;;;;;;;6257816;22;20034;-45
2022/10/18 05:42:26;;;;;;;1.63;0.57;;;;;;;;;;6249171;22;20019;-42
2022/10/18 05:44:54;;;;;;;1.73;0.40;;;;;;;;;;6257836;22;20062;-42
2022/10/18 05:47:21;;;;;;;1.77;0.30;;;;;;;;;;6252656;22;20020;-43
2022/10/18 05:49:49;;;;;;;2.13;0.82;;;;;;;;;;6256954;22;20019;-42
2022/10/18 05:52:16;;;;;;;2.20;0.70;;;;;;;;;;6255960;22;20091;-42
2022/10/18 05:54:44;;;;;;;1.50;0.20;;;;;;;;;;6253283;22;20050;-43
2022/10/18 05:57:10;;;;;;;2.10;0.43;;;;;;;;;;6254836;22;20012;-42
2022/10/18 05:59:37;;;;;;;1.42;0.30;;;;;;;;;;6247248;22;20408;-43
2022/10/18 06:02:03;;;;;;;1.23;0.35;;;;;;;;;;6253114;22;20019;-47
2022/10/18 06:04:30;;;;;;;4.18;1.13;;;;;;;;;;6250172;22;20447;-42
2022/10/18 06:06:58;;;;;;;3.07;0.80;;;;;;;;;;6254050;22;20044;-44
2022/10/18 06:09:24;;;;;;;4.03;0.60;;;;;;;;;;6256631;22;20015;-42
2022/10/18 06:11:51;;;;;;;2.90;1.08;;;;;;;;;;6251036;22;20023;-46
2022/10/18 06:14:17;;;;;;;2.50;0.93;;;;;;;;;;6255871;22;20454;-42
2022/10/18 06:16:44;;;;;;;2.17;0.75;;;;;;;;;;6250267;22;20061;-42
2022/10/18 06:19:10;;;;;;;2.90;0.60;;;;;;;;;;6255506;22;20019;-44
2022/10/18 06:21:37;;;;;;;2.85;1.33;;;;;;;;;;6252841;22;20401;-45
2022/10/18 06:24:06;;;;;;;2.28;0.70;;;;;;;;;;6253847;22;20176;-45
2022/10/18 06:26:33;;;;;;;1.85;0.40;;;;;;;;;;6228013;22;20099;-42
2022/10/18 06:29:00;;;;;;;2.35;0.70;;;;;;;;;;6253273;22;20026;-42
2022/10/18 06:31:26;;;;;;;2.40;0.70;;;;;;;;;;6246739;22;20023;-43
2022/10/18 06:33:53;;;;;;;2.45;0.80;;;;;;;;;;6250378;22;20024;-42
2022/10/18 06:36:21;;;;;;;1.63;0.30;;;;;;;;;;6255119;22;20027;-43
2022/10/18 06:38:47;;;;;;;1.95;0.40;;;;;;;;;;6251329;22;20428;-43
2022/10/18 06:41:16;;;;;;;2.17;0.73;;;;;;;;;;6253713;22;20020;-43
2022/10/18 06:43:43;;;;;;;2.30;0.77;;;;;;;;;;6250722;22;20058;-42
2022/10/18 06:46:10;;;;;;;1.55;0.25;;;;;;;;;;6253755;22;20016;-45
2022/10/18 06:48:38;;;;;;;9.45;0.70;;;;;;;;;;6252208;22;20026;-41
2022/10/18 06:51:06;;;;;;;4.50;0.30;;;;;;;;;;6254925;22;20098;-42
2022/10/18 06:53:34;;;;;;;2.85;0.80;;;;;;;;;;6252093;22;20085;-44
2022/10/18 06:56:01;;;;;;;1.83;0.70;;;;;;;;;;6254751;22;20094;-46
2022/10/18 06:58:29;;;;;;;1.67;0.45;;;;;;;;;;6252715;22;20020;-41
2022/10/18 07:00:56;;;;;;;2.03;0.82;;;;;;;;;;6251828;22;20011;-41
2022/10/18 07:03:23;;;;;;;2.22;1.30;;;;;;;;;;6249878;22;20011;-42
2022/10/18 07:05:50;;;;;;;3.45;0.55;;;;;;;;;;6256951;22;20385;-42
2022/10/18 07:08:17;;;;;;;2.53;0.60;;;;;;;;;;6253026;22;20020;-42
2022/10/18 07:10:50;;;;;;;2.40;0.55;;;;;;;;;;6251219;22;20057;-41
2022/10/18 07:13:17;;;;;;;3.70;0.77;;;;;;;;;;6252450;22;20311;-44
2022/10/18 07:15:44;;;;;;;1.73;0.50;;;;;;;;;;6254459;22;20066;-42
2022/10/18 07:18:11;;;;;;;2.72;0.47;;;;;;;;;;6247304;22;20118;-43
2022/10/18 07:20:37;;;;;;;1.83;0.40;;;;;;;;;;6252635;22;20025;-42
2022/10/18 07:23:07;;;;;;;2.92;0.77;;;;;;;;;;6255666;22;20078;-45
2022/10/18 07:25:33;;;;;;;1.80;0.57;;;;;;;;;;6252649;22;20331;-42
2022/10/18 07:28:00;;;;;;;1.88;0.47;;;;;;;;;;6243880;22;20209;-43
2022/10/18 07:30:27;;;;;;;1.38;0.30;;;;;;;;;;6248495;22;20015;-44
2022/10/18 07:32:56;;;;;;;2.07;0.50;;;;;;;;;;6250425;22;20020;-41
2022/10/18 07:35:22;;;;;;;1.90;0.60;;;;;;;;;;6250860;22;20015;-46
2022/10/18 07:37:49;;;;;;;1.48;0.32;;;;;;;;;;6256028;22;20012;-41
2022/10/18 07:40:15;;;;;;;2.25;0.60;;;;;;;;;;6243927;22;20012;-47
2022/10/18 07:42:42;;;;;;;1.35;0.40;;;;;;;;;;6256281;22;20019;-42
2022/10/18 07:45:09;;;;;;;3.27;1.20;;;;;;;;;;6246728;22;20016;-46
2022/10/18 07:47:35;;;;;;;1.40;0.43;;;;;;;;;;6254572;22;20011;-44
2022/10/18 07:50:03;;;;;;;1.85;0.55;;;;;;;;;;6248319;22;20035;-44
2022/10/18 07:52:30;;;;;;;2.53;1.13;;;;;;;;;;6226761;22;20808;-41
2022/10/18 07:54:56;;;;;;;1.90;1.00;;;;;;;;;;6250667;22;20020;-42
2022/10/18 07:57:23;;;;;;;2.40;0.80;;;;;;;;;;6248504;22;20016;-43
2022/10/18 07:59:55;;;;;;;1.50;0.25;;;;;;;;;;6244737;22;20814;-43
2022/10/18 08:02:21;;;;;;;2.40;0.63;;;;;;;;;;6252875;22;20095;-43
2022/10/18 08:04:48;;;;;;;2.55;0.82;;;;;;;;;;6248276;22;20474;-42
2022/10/18 08:07:16;;;;;;;2.03;0.50;;;;;;;;;;6252217;22;20077;-43
2022/10/18 08:09:42;;;;;;;4.03;1.67;;;;;;;;;;6245201;22;20393;-42
2022/10/18 08:12:09;;;;;;;2.22;0.60;;;;;;;;;;6249362;22;20024;-42
2022/10/18 08:14:35;;;;;;;2.90;0.63;;;;;;;;;;6226316;22;20460;-41
2022/10/18 08:17:02;;;;;;;2.92;0.65;;;;;;;;;;6203706;22;20057;-41
2022/10/18 08:19:28;;;;;;;3.05;0.80;;;;;;;;;;6232447;22;20011;-41
2022/10/18 08:21:55;;;;;;;4.50;2.00;;;;;;;;;;6231779;22;20494;-41
2022/10/18 08:24:23;;;;;;;2.05;0.57;;;;;;;;;;6235436;22;20212;-41
2022/10/18 08:26:50;;;;;;;2.95;1.17;;;;;;;;;;6236318;22;20053;-42
2022/10/18 08:29:16;;;;;;;1.83;0.45;;;;;;;;;;6221906;22;20026;-43
2022/10/18 08:31:43;;;;;;;3.70;1.40;;;;;;;;;;6238990;22;20050;-43
2022/10/18 08:34:10;;;;;;;4.03;1.60;;;;;;;;;;6231849;22;20016;-41
2022/10/18 08:36:37;;;;;;;2.60;1.20;;;;;;;;;;6238990;22;20073;-41
2022/10/18 08:39:03;;;;;;;1.70;0.52;;;;;;;;;;6234159;22;20020;-41
2022/10/18 08:41:44;;;;;;;1.88;0.47;;;;;;;;;;6241089;22;20016;-42
2022/10/18 08:44:14;;;;;;;3.78;0.70;;;;;;;;;;6229900;22;20016;-42
2022/10/18 08:46:44;;;;;;;1.93;0.47;;;;;;;;;;6233388;22;20089;-41
2022/10/18 08:49:12;;;;;;;2.35;0.55;;;;;;;;;;6236340;22;20019;-41
2022/10/18 08:51:42;;;;;;;1.73;0.55;;;;;;;;;;6234370;22;20099;-42
2022/10/18 08:54:12;;;;;;;1.75;0.55;;;;;;;;;;6232200;22;20020;-44
2022/10/18 08:56:42;;;;;;;3.03;0.90;;;;;;;;;;6240976;22;20043;-42
2022/10/18 08:59:09;;;;;;;3.83;0.87;;;;;;;;;;6254290;22;20015;-43
2022/10/18 09:01:39;;;;;;;2.67;0.60;;;;;;;;;;6246896;22;20058;-43
2022/10/18 09:04:17;;;;;;;1.45;0.30;;;;;;;;;;6256554;22;20015;-42
2022/10/18 09:06:46;;;;;;;2.30;0.40;;;;;;;;;;6253168;22;20015;-43
2022/10/18 09:09:21;;;;;;;2.83;0.77;;;;;;;;;;6252055;22;20016;-43
2022/10/18 09:11:54;;;;;;;1.67;0.47;;;;;;;;;;6256490;22;20484;-42
2022/10/18 09:14:36;;;;;;;1.88;0.45;;;;;;;;;;6250242;22;20015;-41
2022/10/18 09:17:08;;;;;;;1.90;0.55;;;;;;;;;;6246660;22;20019;-42
2022/10/18 09:19:44;;;;;;;3.25;0.60;;;;;;;;;;6230002;22;20457;-44
2022/10/18 09:22:12;;;;;;;1.45;0.25;;;;;;;;;;6251550;22;20553;-41
2022/10/18 09:24:40;;;;;;;2.00;0.77;;;;;;;;;;6227204;22;20047;-43
2022/10/18 09:27:14;;;;;;;2.10;0.70;;;;;;;;;;6254346;22;20024;-43
2022/10/18 09:29:47;;;;;;;4.20;1.17;;;;;;;;;;6255305;22;20497;-43
2022/10/18 09:32:20;;;;;;;2.80;0.98;;;;;;;;;;6251359;22;20365;-41
2022/10/18 09:34:49;;;;;;;1.55;0.38;;;;;;;;;;6254772;22;20069;-42
2022/10/18 09:37:18;;;;;;;1.83;0.50;;;;;;;;;;6245957;22;20039;-42
2022/10/18 09:39:45;;;;;;;2.10;0.60;;;;;;;;;;6257058;22;20016;-41
2022/10/18 09:42:16;;;;;;;2.22;0.55;;;;;;;;;;6251004;22;20267;-41
2022/10/18 09:44:45;;;;;;;6.10;1.88;;;;;;;;;;6256461;22;20450;-45
2022/10/18 09:47:13;;;;;;;2.45;0.50;;;;;;;;;;6224114;22;20012;-43
2022/10/18 09:49:41;;;;;;;3.67;0.93;;;;;;;;;;6258051;22;20015;-44
2022/10/18 09:52:13;;;;;;;2.05;0.70;;;;;;;;;;6251446;22;20093;-42
2022/10/18 09:54:41;;;;;;;3.55;1.23;;;;;;;;;;6257373;22;20069;-42
2022/10/18 09:57:11;;;;;;;2.28;0.93;;;;;;;;;;6252716;22;20030;-41
2022/10/18 09:59:40;;;;;;;2.65;0.82;;;;;;;;;;6223753;22;20112;-44
2022/10/18 10:02:11;;;;;;;2.87;0.83;;;;;;;;;;6253939;22;20446;-44
2022/10/18 10:04:37;;;;;;;2.30;0.63;;;;;;;;;;6252111;22;20039;-44
2022/10/18 10:07:07;;;;;;;2.95;0.88;;;;;;;;;;6252184;22;20062;-44
2022/10/18 10:09:36;;;;;;;5.00;1.50;;;;;;;;;;6248997;22;20077;-42
2022/10/18 10:12:03;;;;;;;2.20;0.70;;;;;;;;;;6258438;22;20362;-43
2022/10/18 10:14:30;;;;;;;2.07;0.90;;;;;;;;;;6244564;22;20020;-43
2022/10/18 10:17:01;;;;;;;1.55;0.45;;;;;;;;;;6252223;22;20015;-43
2022/10/18 10:19:28;;;;;;;1.92;0.40;;;;;;;;;;6251145;22;20050;-43
2022/10/18 10:21:57;;;;;;;2.78;1.00;;;;;;;;;;6256381;22;20012;-42
2022/10/18 10:24:32;;;;;;;2.05;0.65;;;;;;;;;;6253569;22;20020;-44
2022/10/18 10:27:00;;;;;;;1.40;0.40;;;;;;;;;;6256065;22;20447;-46
2022/10/18 10:29:45;;;;;;;2.45;0.47;;;;;;;;;;6250710;22;20018;-44
2022/10/18 10:32:14;;;;;;;1.83;0.43;;;;;;;;;;6246724;22;20458;-43
2022/10/18 10:34:41;;;;;;;2.15;0.65;;;;;;;;;;6257375;22;20019;-42
2022/10/18 10:37:21;;;;;;;4.00;0.82;;;;;;;;;;6252911;22;20016;-45
2022/10/18 10:40:04;;;;;;;1.87;0.60;;;;;;;;;;6255279;22;20016;-42
2022/10/18 10:42:31;;;;;;;1.92;0.55;;;;;;;;;;6252502;22;20382;-43
2022/10/18 10:44:58;;;;;;;1.55;0.30;;;;;;;;;;6255459;22;20015;-43
2022/10/18 10:47:28;;;;;;;2.75;1.23;;;;;;;;;;6252896;22;20062;-44
2022/10/18 10:49:56;;;;;;;2.03;0.45;;;;;;;;;;6249527;22;20015;-42
2022/10/18 10:52:26;;;;;;;1.80;0.43;;;;;;;;;;6253745;22;20085;-41
2022/10/18 10:54:54;;;;;;;3.63;0.75;;;;;;;;;;6249276;22;20099;-45
2022/10/18 10:57:23;;;;;;;2.10;0.55;;;;;;;;;;6258222;22;20022;-42
2022/10/18 10:59:51;;;;;;;2.15;0.70;;;;;;;;;;6249663;22;20085;-41
2022/10/18 11:02:22;;;;;;;2.45;1.02;;;;;;;;;;6255059;22;20015;-42
2022/10/18 11:04:50;;;;;;;5.83;0.87;;;;;;;;;;6251238;22;20515;-43
2022/10/18 11:07:21;;;;;;;2.00;0.52;;;;;;;;;;6215140;22;20020;-42
2022/10/18 11:09:51;;;;;;;3.78;0.98;;;;;;;;;;6234868;22;20016;-43
2022/10/18 11:12:21;;;;;;;2.90;0.63;;;;;;;;;;6235158;22;20492;-43
2022/10/18 11:14:51;;;;;;;2.22;0.40;;;;;;;;;;6228439;22;20019;-42
2022/10/18 11:17:22;;;;;;;2.43;0.60;;;;;;;;;;6240727;22;20031;-42
2022/10/18 11:20:08;;;;;;;1.73;0.40;;;;;;;;;;6237201;22;20026;-43
2022/10/18 11:22:38;;;;;;;1.63;0.30;;;;;;;;;;6223987;22;20016;-44
2022/10/18 11:25:05;;;;;;;2.92;0.57;;;;;;;;;;6224268;22;20012;-46
2022/10/18 11:27:34;;;;;;;1.67;0.35;;;;;;;;;;6235436;22;20026;-45
2022/10/18 11:30:14;;;;;;;3.53;1.70;;;;;;;;;;6234506;22;20049;-46
2022/10/18 11:32:44;;;;;;;1.80;0.52;;;;;;;;;;6237174;22;20015;-46
2022/10/18 11:35:22;;;;;;;2.10;0.65;;;;;;;;;;6228782;22;20023;-46
2022/10/18 11:37:55;;;;;;;2.42;0.85;;;;;;;;;;6242412;22;20027;-44
2022/10/18 11:40:40;;;;;;;1.88;0.95;;;;;;;;;;6234636;22;20094;-45
2022/10/18 11:43:10;;;;;;;1.60;0.37;;;;;;;;;;6235643;22;20015;-42
2022/10/18 11:45:41;;;;;;;1.58;0.38;;;;;;;;;;6232010;22;20342;-44
2022/10/18 11:48:17;;;;;;;2.00;0.77;;;;;;;;;;6238226;22;20015;-44
2022/10/18 11:50:48;;;;;;;1.92;0.47;;;;;;;;;;6239546;22;20020;-43
2022/10/18 11:53:21;;;;;;;3.90;0.80;;;;;;;;;;6229281;22;20031;-44
2022/10/18 11:55:54;;;;;;;1.80;0.40;;;;;;;;;;6241329;22;20106;-45
2022/10/18 11:58:31;;;;;;;2.95;0.77;;;;;;;;;;6234872;22;20222;-43
2022/10/18 12:01:01;;;;;;;1.90;0.50;;;;;;;;;;6229725;22;20073;-42
2022/10/18 12:03:33;;;;;;;2.90;1.08;;;;;;;;;;6224217;22;20023;-43
2022/10/18 12:06:03;;;;;;;3.38;1.20;;;;;;;;;;6235708;22;20020;-43
2022/10/18 12:08:33;;;;;;;1.87;0.50;;;;;;;;;;6238332;22;20018;-42
2022/10/18 12:11:04;;;;;;;2.38;1.00;;;;;;;;;;6235063;22;20015;-43
2022/10/18 12:13:34;;;;;;;1.05;0.20;;;;;;;;;;6220909;22;20030;-43
2022/10/18 12:16:02;;;;;;;4.50;1.25;;;;;;;;;;6235045;22;20434;-42
2022/10/18 12:18:30;;;;;;;3.10;0.85;;;;;;;;;;6234236;22;20019;-43
2022/10/18 12:20:58;;;;;;;2.67;0.90;;;;;;;;;;6234263;22;20269;-44
2022/10/18 12:23:30;;;;;;;1.95;0.50;;;;;;;;;;6228582;22;20019;-45
2022/10/18 12:45:27;;;;;;;1.45;0.30;;;;;;;;;;6216322;22;20035;-43
2022/10/18 12:47:58;;;;;;;2.15;0.30;;;;;;;;;;6267138;22;20038;-44
2022/10/18 12:50:35;;;;;;;1.73;0.43;;;;;;;;;;6271523;22;20034;-45
2022/10/18 12:53:03;;;;;;;1.20;0.27;;;;;;;;;;6267429;22;20011;-42
2022/10/18 12:55:31;;;;;;;2.95;0.47;;;;;;;;;;6264000;22;20098;-44
2022/10/18 12:58:02;;;;;;;1.30;0.20;;;;;;;;;;6266174;22;20022;-48
2022/10/18 13:00:47;;;;;;;1.90;0.40;;;;;;;;;;6268364;22;20035;-42
2022/10/18 13:03:32;;;;;;;1.52;0.30;;;;;;;;;;6253706;22;20208;-44
2022/10/18 13:06:00;;;;;;;2.17;0.73;;;;;;;;;;6265031;22;20015;-43
2022/10/18 13:08:38;;;;;;;2.53;0.57;;;;;;;;;;6263707;22;20021;-45
2022/10/18 13:11:24;;;;;;;1.50;0.35;;;;;;;;;;6241442;22;20469;-43
2022/10/18 13:13:59;;;;;;;2.60;0.52;;;;;;;;;;6263616;22;20019;-43
2022/10/18 13:16:30;;;;;;;1.58;0.40;;;;;;;;;;6266128;22;20459;-43
2022/10/18 13:18:58;;;;;;;1.80;0.40;;;;;;;;;;6268350;22;20088;-43
2022/10/18 13:21:32;;;;;;;1.90;0.40;;;;;;;;;;6268788;22;20327;-43
2022/10/18 13:24:06;;;;;;;1.90;0.40;;;;;;;;;;6259440;22;20094;-43
2022/10/18 13:26:39;;;;;;;4.65;0.52;;;;;;;;;;6270056;22;20406;-45
2022/10/18 13:29:17;;;;;;;1.40;0.30;;;;;;;;;;6267946;22;20026;-45
2022/10/18 13:31:45;;;;;;;1.63;0.43;;;;;;;;;;6269430;22;20022;-42
2022/10/18 13:34:24;;;;;;;1.80;0.50;;;;;;;;;;6261604;22;20019;-44
2022/10/18 13:36:57;;;;;;;1.35;0.22;;;;;;;;;;6237741;22;20023;-44
2022/10/18 13:39:24;;;;;;;1.42;0.30;;;;;;;;;;6257397;22;20057;-43
2022/10/18 13:42:09;;;;;;;1.08;0.20;;;;;;;;;;6261126;22;20023;-43
2022/10/18 13:44:38;;;;;;;1.73;0.37;;;;;;;;;;6262057;22;20503;-43
2022/10/18 13:47:10;;;;;;;1.67;0.30;;;;;;;;;;6278371;22;20217;-45
2022/10/18 13:49:39;;;;;;;1.30;0.40;;;;;;;;;;6286797;22;20023;-43
2022/10/18 13:52:14;;;;;;;1.70;0.40;;;;;;;;;;6285633;22;20019;-43
2022/10/18 13:54:55;;;;;;;2.10;0.95;;;;;;;;;;6283525;22;20023;-43
2022/10/18 13:57:31;;;;;;;1.93;0.50;;;;;;;;;;6281187;22;20023;-44
2022/10/18 14:00:12;;;;;;;2.05;0.50;;;;;;;;;;6247800;22;20544;-43
2022/10/18 14:02:46;;;;;;;2.97;1.27;;;;;;;;;;6274522;22;20041;-42
2022/10/18 14:05:28;;;;;;;1.50;0.30;;;;;;;;;;6281982;22;20015;-45
2022/10/18 14:07:59;;;;;;;1.40;0.30;;;;;;;;;;6283176;22;20060;-44
2022/10/18 14:10:38;;;;;;;1.30;0.30;;;;;;;;;;6284817;22;20501;-43
2022/10/18 14:13:07;;;;;;;1.77;0.40;;;;;;;;;;6286993;22;20541;-43
2022/10/18 14:15:36;;;;;;;1.73;0.43;;;;;;;;;;6286244;22;20019;-44
2022/10/18 14:18:05;;;;;;;1.88;0.63;;;;;;;;;;6278915;22;20019;-44
2022/10/18 14:20:34;;;;;;;2.33;0.77;;;;;;;;;;6283891;22;20019;-46
2022/10/18 14:23:05;;;;;;;1.53;0.40;;;;;;;;;;6260222;22;20027;-43
2022/10/18 14:25:34;;;;;;;1.80;0.40;;;;;;;;;;6282051;22;20384;-45
2022/10/18 14:28:09;;;;;;;1.70;0.30;;;;;;;;;;6288112;22;20015;-46
2022/10/18 14:30:36;;;;;;;1.58;0.38;;;;;;;;;;6276628;22;20030;-45
2022/10/18 14:33:03;;;;;;;1.90;0.57;;;;;;;;;;6282529;22;20088;-44
2022/10/18 14:35:31;;;;;;;2.47;0.40;;;;;;;;;;6283060;22;20034;-43
2022/10/18 14:37:57;;;;;;;1.70;0.50;;;;;;;;;;6279161;22;20019;-43
2022/10/18 14:40:33;;;;;;;2.55;0.82;;;;;;;;;;6281891;22;20015;-44
2022/10/18 14:43:03;;;;;;;1.20;0.20;;;;;;;;;;6285461;22;20016;-45
2022/10/18 14:45:30;;;;;;;1.73;0.50;;;;;;;;;;6254990;22;20019;-43
2022/10/18 14:48:05;;;;;;;2.73;0.50;;;;;;;;;;6286877;22;20016;-44
2022/10/18 14:50:31;;;;;;;2.58;0.80;;;;;;;;;;6280371;22;20022;-43
2022/10/18 14:52:58;;;;;;;2.28;0.47;;;;;;;;;;6284480;22;20072;-42
2022/10/18 14:55:27;;;;;;;4.25;1.02;;;;;;;;;;6253626;22;20333;-42
2022/10/18 14:57:55;;;;;;;2.22;0.40;;;;;;;;;;6256363;22;20025;-43
2022/10/18 15:00:24;;;;;;;2.57;0.40;;;;;;;;;;6286550;22;20045;-43
2022/10/18 15:02:51;;;;;;;2.83;0.40;;;;;;;;;;6286671;22;20437;-44
2022/10/18 15:05:20;;;;;;;1.60;0.30;;;;;;;;;;6283067;22;20015;-44
2022/10/18 15:07:47;;;;;;;3.17;0.77;;;;;;;;;;6286288;22;20072;-43
2022/10/18 15:10:15;;;;;;;1.77;0.30;;;;;;;;;;6284137;22;20388;-44
2022/10/18 15:12:42;;;;;;;2.03;0.50;;;;;;;;;;6283068;22;20060;-44
2022/10/18 15:15:13;;;;;;;7.97;0.77;;;;;;;;;;6282684;22;20019;-45